createdAt,value
2019-05-13T05:21:12.081Z,14.55
2019-05-13T05:24:11.368Z,14.51
2019-05-13T05:27:14.674Z,14.48
2019-05-13T05:30:32.217Z,14.78
2019-05-13T05:33:44.094Z,15.03
2019-05-13T05:36:57.543Z,14.97
2019-05-13T05:39:31.580Z,14.71
2019-05-13T05:42:06.335Z,15.16
2019-05-13T05:44:42.165Z,15.22
2019-05-13T05:47:17.177Z,15.35
2019-05-13T05:49:51.658Z,15.25
2019-05-13T05:52:27.395Z,15.14
2019-05-13T05:55:02.392Z,15.28
2019-05-13T07:23:52.166Z,18.06
2019-05-13T07:26:22.245Z,18.14
2019-05-13T07:28:55.855Z,18.21
2019-05-13T07:31:27.858Z,17.89
2019-05-13T07:34:02.059Z,18.52
2019-05-13T07:36:33.426Z,18.33
2019-05-13T07:39:06.489Z,17.97
2019-05-13T07:41:39.732Z,18.47
2019-05-13T07:44:12.244Z,17.80
2019-05-13T07:46:43.962Z,17.85
2019-05-13T07:49:16.958Z,18.51
2019-05-13T07:51:48.379Z,18.53
2019-05-13T07:54:22.054Z,18.00
2019-05-13T07:57:07.843Z,18.39
2019-05-13T07:59:35.688Z,19.08
2019-05-13T08:02:12.419Z,19.66
2019-05-13T08:05:02.449Z,19.27
2019-05-13T08:07:35.122Z,18.49
2019-05-13T08:10:07.480Z,19.39
2019-05-13T08:12:41.157Z,19.24
2019-05-13T08:15:13.420Z,19.31
2019-05-13T08:17:47.666Z,19.25
2019-05-13T08:20:18.582Z,19.78
2019-05-13T08:22:51.997Z,19.47
2019-05-13T08:25:23.935Z,19.29
2019-05-13T08:27:55.404Z,19.64
2019-05-13T08:30:27.238Z,18.81
2019-05-13T08:32:58.888Z,19.21
2019-05-13T08:35:31.514Z,19.13
2019-05-13T08:38:03.285Z,20.18
2019-05-13T08:40:35.546Z,18.96
2019-05-13T08:43:08.490Z,19.31
2019-05-13T08:45:42.045Z,19.03
2019-05-13T08:48:13.521Z,19.40
2019-05-13T08:50:45.295Z,19.15
2019-05-13T08:53:17.345Z,19.68
2019-05-13T08:55:51.577Z,19.18
2019-05-13T08:58:22.860Z,20.09
2019-05-13T09:00:58.961Z,20.39
2019-05-13T09:03:32.587Z,19.91
2019-05-13T09:06:04.363Z,18.97
2019-05-13T09:08:36.610Z,18.98
2019-05-13T09:11:08.626Z,18.88
2019-05-13T09:13:42.280Z,19.18
2019-05-13T09:16:14.165Z,19.58
2019-05-13T09:18:46.047Z,20.27
2019-05-13T09:21:22.464Z,19.37
2019-05-13T09:23:54.978Z,19.79
2019-05-13T09:26:26.844Z,19.07
2019-05-13T09:29:01.254Z,19.48
2019-05-13T09:31:34.309Z,19.43
2019-05-13T09:34:06.216Z,19.43
2019-05-13T09:36:37.928Z,19.78
2019-05-13T09:39:12.745Z,19.60
2019-05-13T09:41:45.227Z,19.40
2019-05-13T09:44:17.436Z,19.80
2019-05-13T09:46:51.580Z,19.90
2019-05-13T09:49:23.720Z,19.74
2019-05-13T09:51:55.714Z,19.97
2019-05-13T09:54:27.641Z,19.48
2019-05-13T09:57:01.713Z,20.45
2019-05-13T09:59:33.186Z,20.48
2019-05-13T10:02:05.229Z,20.77
2019-05-13T10:04:36.671Z,20.07
2019-05-13T10:07:11.949Z,20.46
2019-05-13T10:09:47.539Z,20.02
2019-05-13T10:12:16.491Z,19.61
2019-05-13T10:14:48.327Z,20.47
2019-05-13T10:17:21.950Z,20.66
2019-05-13T10:19:53.656Z,20.70
2019-05-13T10:22:25.666Z,20.48
2019-05-13T10:24:57.107Z,20.03
2019-05-13T10:27:33.453Z,19.18
2019-05-13T10:30:06.279Z,20.23
2019-05-13T10:32:49.057Z,19.80
2019-05-13T10:39:11.865Z,20.19
2019-05-13T10:42:12.114Z,20.27
2019-05-13T10:44:55.081Z,19.69
2019-05-13T10:47:43.803Z,20.19
2019-05-13T10:50:27.843Z,19.24
2019-05-13T10:53:18.125Z,19.49
2019-05-13T10:56:15.562Z,18.74
2019-05-13T10:58:53.403Z,19.22
2019-05-13T11:01:51.898Z,18.93
2019-05-13T11:04:24.404Z,19.43
2019-05-13T11:06:59.529Z,19.04
2019-05-13T11:09:53.229Z,19.27
2019-05-13T11:12:33.648Z,19.81
2019-05-13T11:15:10.530Z,19.38
2019-05-13T11:17:44.103Z,19.22
2019-05-13T11:20:22.106Z,19.11
2019-05-13T11:23:12.616Z,19.50
2019-05-13T11:25:43.629Z,19.10
2019-05-13T11:28:21.106Z,19.52
2019-05-13T11:31:02.833Z,18.43
2019-05-13T11:33:38.202Z,19.04
2019-05-13T11:36:19.050Z,19.42
2019-05-13T11:38:53.081Z,19.27
2019-05-13T11:41:28.015Z,19.47
2019-05-13T11:44:13.003Z,19.26
2019-05-13T11:46:35.700Z,18.40
2019-05-13T11:49:11.843Z,18.25
2019-05-13T11:51:47.210Z,17.81
2019-05-13T11:54:22.376Z,18.15
2019-05-13T11:57:02.775Z,17.87
2019-05-13T11:59:36.712Z,17.76
2019-05-13T12:02:13.449Z,17.31
2019-05-13T12:04:53.557Z,16.85
2019-05-13T12:07:32.265Z,16.87
2019-05-13T12:10:15.195Z,16.92
2019-05-13T12:12:47.028Z,17.50
2019-05-13T12:15:32.787Z,17.15
2019-05-13T12:17:54.348Z,17.09
2019-05-13T12:20:26.864Z,17.39
2019-05-13T12:22:58.890Z,17.44
2019-05-13T12:25:33.507Z,17.76
2019-05-13T12:28:04.483Z,18.55
2019-05-13T12:30:38.049Z,18.75
2019-05-13T12:33:13.518Z,18.29
2019-05-13T12:35:47.947Z,18.09
2019-05-13T12:38:21.983Z,18.32
2019-05-13T12:40:53.379Z,18.49
2019-05-13T12:43:25.472Z,18.83
2019-05-13T12:45:57.656Z,18.36
2019-05-13T12:48:29.311Z,18.84
2019-05-13T12:51:03.053Z,18.92
2019-05-13T12:53:35.090Z,18.90
2019-05-13T12:56:07.947Z,18.18
2019-05-13T12:58:39.511Z,18.48
2019-05-13T13:01:12.842Z,18.30
2019-05-13T13:03:45.380Z,17.82
2019-05-13T13:06:30.348Z,18.37
2019-05-13T13:08:51.294Z,18.42
2019-05-13T13:11:23.719Z,17.88
2019-05-13T13:13:59.544Z,17.31
2019-05-13T13:16:34.255Z,17.13
2019-05-13T13:19:02.760Z,17.08
2019-05-13T13:21:37.781Z,16.92
2019-05-13T13:24:08.229Z,16.67
2019-05-13T13:26:42.821Z,16.89
2019-05-13T13:29:13.766Z,17.22
2019-05-13T13:31:45.236Z,17.28
2019-05-13T13:34:18.297Z,17.38
2019-05-13T13:36:52.659Z,17.29
2019-05-13T13:39:25.622Z,17.35
2019-05-13T13:41:57.793Z,17.32
2019-05-13T13:44:34.996Z,17.09
2019-05-13T13:47:03.618Z,17.67
2019-05-13T13:49:35.645Z,17.82
2019-05-13T13:52:07.746Z,17.76
2019-05-13T13:54:43.844Z,16.80
2019-05-13T13:57:13.596Z,16.99
2019-05-13T14:00:16.126Z,17.00
2019-05-13T14:02:23.953Z,17.13
2019-05-13T14:04:54.145Z,17.11
2019-05-13T14:07:34.981Z,16.93
2019-05-13T14:10:06.486Z,16.51
2019-05-13T14:12:34.576Z,16.64
2019-05-13T14:15:07.363Z,16.73
2019-05-13T14:17:41.886Z,16.70
2019-05-13T14:20:14.184Z,16.79
2019-05-13T14:22:45.904Z,16.65
2019-05-13T14:25:17.834Z,16.51
2019-05-13T14:27:52.496Z,16.36
2019-05-13T14:30:24.025Z,16.39
2019-05-13T14:32:55.930Z,16.52
2019-05-13T14:35:27.590Z,16.55
2019-05-13T14:37:59.313Z,16.57
2019-05-13T14:40:31.976Z,16.56
2019-05-13T14:43:03.960Z,16.50
2019-05-13T14:45:36.095Z,16.32
2019-05-13T14:48:07.674Z,16.38
2019-05-13T14:50:41.392Z,16.39
2019-05-13T14:53:12.612Z,16.49
2019-05-13T14:55:44.897Z,16.50
2019-05-13T14:58:16.850Z,16.22
2019-05-13T15:01:09.922Z,16.42
2019-05-13T15:03:22.649Z,16.48
2019-05-13T15:05:54.441Z,16.00
2019-05-13T15:08:26.628Z,16.05
2019-05-13T15:10:58.528Z,15.91
2019-05-13T15:13:31.914Z,16.04
2019-05-13T15:16:04.256Z,16.13
2019-05-13T15:18:36.323Z,16.08
2019-05-13T15:21:09.020Z,15.83
2019-05-13T15:23:42.464Z,15.87
2019-05-13T15:26:14.720Z,15.75
2019-05-13T15:28:51.155Z,15.75
2019-05-13T15:31:22.480Z,15.76
2019-05-13T15:33:54.215Z,15.69
2019-05-13T15:36:25.746Z,15.74
2019-05-13T15:38:57.284Z,15.54
2019-05-13T15:41:29.186Z,15.46
2019-05-13T15:44:03.443Z,15.52
2019-05-13T15:46:35.357Z,15.41
2019-05-13T15:49:13.409Z,15.34
2019-05-13T15:51:45.759Z,15.39
2019-05-13T15:54:22.114Z,15.43
2019-05-13T15:56:53.155Z,15.52
2019-05-13T15:59:25.201Z,15.48
2019-05-13T16:02:04.205Z,15.45
2019-05-13T16:04:48.977Z,15.38
2019-05-13T16:07:12.259Z,15.43
2019-05-13T16:09:48.568Z,15.44
2019-05-13T16:12:21.397Z,15.45
2019-05-13T16:14:53.454Z,15.41
2019-05-13T16:17:37.889Z,15.39
2019-05-13T16:20:08.649Z,15.37
2019-05-13T16:22:53.248Z,15.44
2019-05-13T16:25:24.167Z,15.39
2019-05-13T16:28:06.655Z,15.45
2019-05-13T16:30:43.113Z,15.45
2019-05-13T16:33:42.713Z,15.41
2019-05-13T16:36:38.868Z,15.39
2019-05-13T16:41:16.636Z,15.45
2019-05-13T16:43:04.290Z,15.45
2019-05-13T16:46:01.842Z,15.40
2019-05-13T16:48:42.531Z,15.26
2019-05-13T16:51:52.392Z,15.35
2019-05-13T16:54:54.639Z,15.29
2019-05-13T16:58:01.934Z,15.15
2019-05-13T17:01:33.364Z,15.23
2019-05-13T17:05:19.267Z,15.22
2019-05-13T17:08:27.424Z,15.17
2019-05-13T17:11:09.029Z,15.16
2019-05-13T17:13:46.240Z,15.17
2019-05-13T17:16:21.330Z,15.13
2019-05-13T17:19:35.544Z,15.07
2019-05-13T17:22:31.722Z,15.08
2019-05-13T17:25:04.322Z,15.08
2019-05-13T17:31:12.506Z,15.03
2019-05-13T17:33:45.206Z,14.98
2019-05-13T17:36:18.604Z,14.95
2019-05-13T17:46:10.634Z,14.80
2019-05-13T17:48:43.753Z,14.76
2019-05-13T17:53:58.071Z,14.78
2019-05-13T17:54:53.129Z,14.76
2019-05-13T17:57:24.916Z,14.65
2019-05-13T17:59:59.877Z,14.60
2019-05-13T18:03:01.981Z,14.58
2019-05-13T18:05:38.812Z,14.56
2019-05-13T18:08:11.427Z,14.49
2019-05-13T18:10:44.199Z,14.49
2019-05-13T18:13:16.018Z,14.47
2019-05-13T18:15:48.024Z,14.46
2019-05-13T18:18:21.577Z,14.37
2019-05-13T18:20:53.500Z,14.35
2019-05-13T18:23:31.173Z,14.38
2019-05-13T18:26:03.014Z,14.38
2019-05-13T18:28:39.391Z,14.31
2019-05-13T18:31:12.284Z,14.27
2019-05-13T18:33:44.675Z,14.19
2019-05-13T18:36:16.398Z,14.27
2019-05-13T18:38:47.906Z,14.20
2019-05-13T18:41:25.231Z,14.19
2019-05-13T18:44:01.295Z,14.21
2019-05-13T18:46:34.530Z,14.23
2019-05-13T18:49:06.262Z,14.10
2019-05-13T18:51:37.843Z,14.14
2019-05-13T18:54:12.063Z,14.06
2019-05-13T18:56:42.844Z,13.97
2019-05-13T18:59:14.415Z,13.93
2019-05-13T19:01:46.406Z,13.89
2019-05-13T19:04:19.244Z,13.84
2019-05-13T19:06:52.188Z,13.81
2019-05-13T19:09:24.467Z,13.79
2019-05-13T19:12:01.227Z,13.78
2019-05-13T19:14:32.629Z,13.82
2019-05-13T19:17:04.792Z,13.87
2019-05-13T19:19:36.779Z,13.87
2019-05-13T19:22:08.550Z,13.84
2019-05-13T19:24:46.104Z,13.79
2019-05-13T19:27:17.960Z,13.75
2019-05-13T19:29:55.797Z,13.72
2019-05-13T19:32:32.181Z,13.65
2019-05-13T19:35:03.553Z,13.61
2019-05-13T19:37:35.621Z,13.57
2019-05-13T19:40:07.499Z,13.57
2019-05-13T19:42:41.833Z,13.54
2019-05-13T19:45:14.118Z,13.50
2019-05-13T19:47:46.305Z,13.39
2019-05-13T19:50:18.700Z,13.43
2019-05-13T19:52:51.897Z,13.39
2019-05-13T19:55:23.912Z,13.43
2019-05-13T19:57:55.437Z,13.38
2019-05-13T20:00:27.390Z,13.45
2019-05-13T20:02:59.315Z,13.44
2019-05-13T20:05:31.776Z,13.39
2019-05-13T20:08:04.401Z,13.43
2019-05-13T20:10:35.953Z,13.44
2019-05-13T20:13:07.877Z,13.46
2019-05-13T20:15:41.280Z,13.46
2019-05-13T20:18:13.172Z,13.44
2019-05-13T20:20:44.931Z,13.42
2019-05-13T20:23:16.718Z,13.42
2019-05-13T20:25:52.357Z,13.41
2019-05-13T20:28:24.044Z,13.41
2019-05-13T20:30:55.778Z,13.47
2019-05-13T20:33:27.434Z,13.49
2019-05-13T20:36:01.404Z,13.52
2019-05-13T20:38:32.912Z,13.55
2019-05-13T20:41:04.780Z,13.53
2019-05-13T20:43:39.376Z,13.53
2019-05-13T20:46:11.416Z,13.46
2019-05-13T20:48:43.746Z,13.46
2019-05-13T20:51:15.519Z,13.50
2019-05-13T20:53:47.836Z,13.49
2019-05-13T20:56:21.410Z,13.48
2019-05-13T20:58:53.196Z,13.47
2019-05-13T21:01:25.141Z,13.51
2019-05-13T21:03:56.706Z,13.50
2019-05-13T21:06:28.515Z,13.52
2019-05-13T21:09:01.519Z,13.59
2019-05-13T21:11:33.412Z,13.51
2019-05-13T21:14:05.455Z,13.62
2019-05-13T21:16:36.924Z,13.57
2019-05-13T21:19:08.922Z,13.52
2019-05-13T21:21:41.719Z,13.48
2019-05-13T21:24:13.767Z,13.50
2019-05-13T21:26:45.965Z,13.54
2019-05-13T21:29:17.686Z,13.56
2019-05-13T21:31:49.654Z,13.51
2019-05-13T21:34:25.024Z,13.47
2019-05-13T21:36:56.718Z,13.46
2019-05-13T21:39:28.700Z,13.49
2019-05-13T21:42:02.346Z,13.47
2019-05-13T21:44:34.507Z,13.33
2019-05-13T21:47:06.569Z,13.29
2019-05-13T21:49:38.101Z,13.41
2019-05-13T21:52:09.926Z,13.52
2019-05-13T21:54:42.340Z,13.57
2019-05-13T21:57:14.441Z,13.64
2019-05-13T21:59:46.032Z,13.71
2019-05-13T22:02:17.604Z,13.78
2019-05-13T22:04:51.691Z,13.80
2019-05-13T22:07:23.767Z,13.77
2019-05-13T22:09:55.647Z,13.77
2019-05-13T22:12:27.788Z,13.79
2019-05-13T22:15:00.994Z,13.87
2019-05-13T22:17:33.121Z,13.89
2019-05-13T22:20:05.722Z,13.91
2019-05-13T22:22:37.576Z,13.88
2019-05-13T22:25:12.032Z,13.90
2019-05-13T22:27:43.572Z,13.88
2019-05-13T22:30:15.971Z,13.92
2019-05-13T22:32:47.525Z,13.95
2019-05-13T22:35:18.976Z,13.84
2019-05-13T22:37:51.209Z,13.87
2019-05-13T22:40:23.309Z,13.93
2019-05-13T22:42:56.617Z,13.81
2019-05-13T22:45:28.173Z,13.84
2019-05-13T22:47:59.709Z,13.85
2019-05-13T22:50:31.925Z,13.83
2019-05-13T22:53:03.958Z,13.92
2019-05-13T22:55:35.945Z,13.91
2019-05-13T22:58:07.658Z,13.91
2019-05-13T23:00:42.362Z,13.89
2019-05-13T23:03:14.781Z,13.95
2019-05-13T23:05:46.843Z,14.05
2019-05-13T23:08:18.274Z,14.07
2019-05-13T23:10:51.723Z,14.02
2019-05-13T23:13:23.529Z,14.03
2019-05-13T23:15:55.597Z,14.04
2019-05-13T23:18:27.187Z,14.08
2019-05-13T23:20:58.916Z,14.05
2019-05-13T23:23:30.952Z,14.03
2019-05-13T23:26:03.117Z,14.05
2019-05-13T23:28:35.139Z,14.05
2019-05-13T23:31:06.912Z,14.06
2019-05-13T23:33:39.033Z,14.06
2019-05-13T23:36:12.035Z,14.04
2019-05-13T23:38:44.307Z,14.03
2019-05-13T23:41:15.853Z,14.03
2019-05-13T23:43:47.536Z,14.06
2019-05-13T23:46:19.253Z,13.98
2019-05-13T23:48:52.020Z,13.94
2019-05-13T23:51:24.028Z,13.96
2019-05-13T23:53:55.759Z,14.03
2019-05-13T23:56:28.026Z,14.02
2019-05-13T23:59:00.199Z,13.98
